Latest Weather Observations for Goulburn Airport

IDN60901

Issued at 7:51 pm EDT Saturday 16 December 2017 (issued every 10 minutes, with the page automatically refreshed every 10 minutes)

About weather observations | Map of Canberra area stations | Latest observations for Canberra area | Other Formats
Station Details ID: 070330 Name: GOULBURN AIRPORT AWS Lat: -34.81 Lon: 149.73 Height: 640.0 m
Data from the previous 72 hours. | See also: Recent months at Goulburn Airport
Date/Time
EDT
Temp
°C
App
Temp
°C
Dew
Point
°C
Rel
Hum
%
Delta-T
°C
Wind Press
QNH
hPa
Press
MSL
hPa
Rain since
9am
mm
Dir  Spd
km/h
Gust
km/h
Spd
kts
Gust
kts
16/07:30pm 26.3 23.6 11.6 40 8.6 SE 17 24 9 13 1015.7 1013.4 0.2
16/07:05pm 26.9 24.7 12.2 40 8.7 SW 15 39 8 21 1014.9 1012.5 0.2
16/07:00pm 27.1 27.0 13.8 44 8.1 WSW 7 11 4 6 1014.6 1012.3 0.2
16/06:30pm 28.1 26.8 11.2 35 9.9 WSW 9 11 5 6 1014.3 1012.0 0.2
16/06:00pm 29.2 28.3 11.3 33 10.6 SW 7 13 4 7 1013.9 1011.5 0.2
16/05:30pm 30.7 29.5 9.6 27 12.2 NNW 6 13 3 7 1013.6 1011.2 0.2
16/05:00pm 31.3 29.5 9.5 26 12.6 W 9 19 5 10 1013.9 1011.5 0.2
16/04:30pm 30.7 28.2 9.6 27 12.2 WNW 13 19 7 10 1014.1 1011.8 0.2
16/04:00pm 31.8 29.0 9.9 26 12.8 WNW 15 28 8 15 1014.2 1011.9 0.2
16/03:30pm 31.2 27.7 8.8 25 12.8 WNW 17 28 9 15 1014.4 1012.1 0.2
16/03:00pm 31.8 27.8 8.1 23 13.5 NW 19 35 10 19 1014.6 1012.3 0.2
16/02:30pm 31.8 27.8 8.1 23 13.5 WNW 19 30 10 16 1014.9 1012.5 0.2
16/02:00pm 31.1 28.9 9.3 26 12.6 NW 11 28 6 15 1015.0 1012.6 0.2
16/01:30pm 30.8 28.2 10.7 29 11.9 WNW 15 33 8 18 1015.4 1013.0 0.2
16/01:00pm 30.5 27.6 12.4 33 10.9 W 19 26 10 14 1015.7 1013.4 0.2
16/12:30pm 30.8 28.3 13.6 35 10.6 W 19 30 10 16 1015.8 1013.5 0.2
16/12:00pm 30.0 27.5 12.4 34 10.6 W 17 24 9 13 1016.0 1013.7 0.2
16/11:30am 29.6 26.9 11.6 33 10.7 NW 17 30 9 16 1016.2 1013.9 0.2
16/11:00am 28.8 26.4 11.4 34 10.3 NW 15 22 8 12 1016.3 1014.0 0.2
16/10:30am 28.0 26.5 13.1 39 9.0 NNW 13 26 7 14 1016.6 1014.2 0.2
16/10:00am 27.2 24.8 12.8 41 8.6 WNW 17 22 9 12 1016.8 1014.4 0.0
16/09:30am 25.8 25.1 13.3 46 7.5 NW 9 17 5 9 1016.9 1014.6 0.0
16/09:00am 24.4 24.6 14.2 53 6.2 N 6 11 3 6 1016.9 1014.6 0.2
16/08:30am 22.9 23.6 14.5 59 5.1 N 4 7 2 4 1016.9 1014.6 0.2
16/08:00am 20.8 21.8 13.3 62 4.4 CALM 0 0 0 0 1016.8 1014.4 0.2
16/07:30am 19.0 20.6 14.9 77 2.5 CALM 0 0 0 0 1016.6 1014.2 0.2
16/07:00am 15.9 17.3 14.4 91 0.9 CALM 0 0 0 0 1016.2 1013.9 0.2
16/06:30am 14.1 15.0 12.8 92 0.7 CALM 0 0 0 0 1015.8 1013.5 0.2
16/06:00am 13.8 13.6 12.9 94 0.5 ESE 6 9 3 5 1015.5 1013.2 0.2
16/05:30am 14.3 15.4 13.5 95 0.5 CALM 0 6 0 3 1015.1 1012.7 0.2
16/05:00am 13.3 13.8 11.7 90 0.9 CALM 0 0 0 0 1014.7 1012.4 0.2
16/04:30am 14.3 15.2 13.0 92 0.7 CALM 0 0 0 0 1014.4 1012.1 0.2
16/04:00am 14.5 15.4 13.0 91 0.9 CALM 0 0 0 0 1014.4 1012.1 0.2
16/03:30am 14.8 15.7 12.8 88 1.1 CALM 0 0 0 0 1014.2 1011.9 0.2
16/03:00am 15.4 15.1 13.4 88 1.2 ESE 7 11 4 6 1014.3 1012.0 0.2
16/02:30am 16.4 16.2 13.5 83 1.7 N 7 7 4 4 1014.3 1012.0 0.2
16/02:00am 18.0 17.8 13.7 76 2.5 N 7 9 4 5 1014.4 1012.1 0.2
16/01:30am 18.6 18.4 13.7 73 2.9 NW 7 9 4 5 1014.2 1011.9 0.2
16/01:00am 19.3 18.4 13.7 70 3.3 NW 11 13 6 7 1014.1 1011.8 0.2
16/12:30am 19.1 17.3 14.4 74 2.8 N 17 20 9 11 1014.0 1011.6 0.2
16/12:00am 19.4 19.3 14.0 71 3.2 NNE 7 9 4 5 1013.9 1011.5 0.2
 
Date/Time
EDT
Temp
°C
App
Temp
°C
Dew
Point
°C
Rel
Hum
%
Delta-T
°C
Wind Press
QNH
hPa
Press
MSL
hPa
Rain since
9am
mm
Dir  Spd
km/h
Gust
km/h
Spd
kts
Gust
kts
15/11:30pm 19.8 19.4 14.2 70 3.3 NNE 9 13 5 7 1014.0 1011.6 0.2
15/11:00pm 18.4 19.3 13.9 75 2.7 NNW 2 6 1 3 1014.7 1012.4 0.2
15/10:30pm 18.5 19.3 14.8 79 2.2 NNE 4 9 2 5 1015.1 1012.7 0.2
15/10:00pm 18.9 20.1 15.8 82 1.9 N 4 7 2 4 1015.2 1012.8 0.2
15/09:30pm 18.8 18.9 16.4 86 1.5 W 11 13 6 7 1015.2 1012.8 0.2
15/09:00pm 19.2 19.1 15.9 81 2.0 WNW 11 13 6 7 1014.6 1012.3 0.2
15/08:30pm 19.8 20.4 15.9 78 2.4 NNW 7 9 4 5 1014.4 1012.1 0.2
15/08:00pm 20.2 20.0 15.8 76 2.7 NW 11 15 6 8 1014.0 1011.6 0.0
15/07:30pm 21.5 17.1 15.6 69 3.6 WNW 33 57 18 31 1014.2 1011.9 0.0
15/07:27pm 22.3 17.8 14.9 63 4.5 NW 32 57 17 31 1014.3 1012.0 0.0
15/07:24pm 24.0 20.7 14.1 54 6.0 NW 24 52 13 28 1013.9 1011.5 0.0
15/07:00pm 26.4 24.0 12.8 43 8.1 NNW 17 20 9 11 1013.0 1010.7 0.0
15/06:30pm 27.3 24.6 11.7 37 9.2 NNW 17 24 9 13 1012.4 1010.0 0.0
15/06:00pm 27.3 24.6 12.9 41 8.7 NNW 19 26 10 14 1012.5 1010.1 0.0
15/05:30pm 27.2 24.3 12.4 40 8.8 NNW 19 24 10 13 1012.4 1010.0 0.0
15/05:00pm 27.0 24.3 13.4 43 8.2 NNW 20 26 11 14 1012.5 1010.1 0.0
15/04:30pm 26.7 25.1 13.8 45 7.9 NNW 15 20 8 11 1012.6 1010.2 0.0
15/04:00pm 26.5 26.6 15.5 50 6.9 NNE 9 15 5 8 1012.7 1010.4 0.0
15/03:30pm 26.6 26.2 15.3 50 7.0 N 11 15 6 8 1012.9 1010.6 0.0
15/03:00pm 26.2 25.4 15.0 50 6.9 NNW 13 22 7 12 1013.1 1010.8 0.0
15/02:30pm 25.0 24.4 16.7 60 5.3 NE 15 20 8 11 1013.5 1011.1 0.0
15/02:00pm 24.9 23.4 16.3 59 5.4 NE 19 26 10 14 1013.9 1011.5 0.0
15/01:30pm 25.2 22.9 14.6 51 6.5 NE 20 30 11 16 1014.2 1011.9 0.0
15/01:00pm 24.2 22.5 16.2 61 5.0 NNE 20 28 11 15 1014.7 1012.4 0.0
15/12:30pm 23.6 21.6 15.6 61 5.0 NE 20 26 11 14 1015.1 1012.7 0.0
15/12:00pm 22.0 20.4 16.1 69 3.7 NE 19 24 10 13 1015.4 1013.0 0.0
15/11:30am 21.5 18.4 15.6 69 3.6 NE 26 32 14 17 1015.4 1013.0 0.0
15/11:00am 20.4 17.7 15.6 74 2.9 NNE 24 30 13 16 1015.4 1013.0 0.0
15/10:56am 21.2 19.1 17.2 78 2.5 NNE 24 30 13 16 1015.3 1012.9 0.0
15/10:30am 19.9 17.9 16.5 81 2.1 NE 22 30 12 16 1015.5 1013.2 0.0
15/10:00am 18.8 17.7 16.4 86 1.5 NE 17 24 9 13 1015.7 1013.4 0.0
15/09:30am 18.8 19.5 16.2 85 1.6 ESE 7 11 4 6 1016.7 1014.3 0.0
15/09:00am 18.0 18.7 16.0 88 1.2 SE 7 9 4 5 1016.6 1014.2 0.0
15/08:30am 18.0 18.2 15.8 87 1.3 SE 9 13 5 7 1016.1 1013.8 0.0
15/08:00am 17.7 17.6 16.0 90 1.0 S 11 15 6 8 1016.2 1013.9 0.0
15/07:30am 17.3 15.9 15.6 90 1.0 SSE 17 20 9 11 1015.5 1013.2 0.0
15/07:00am 17.5 16.6 15.8 90 1.0 S 15 19 8 10 1015.6 1013.3 0.0
15/06:30am 17.3 17.2 16.0 92 0.8 SSE 11 13 6 7 1014.9 1012.5 0.0
15/06:00am 17.0 16.8 15.7 92 0.8 S 11 13 6 7 1014.5 1012.2 0.0
15/05:30am 17.0 16.7 15.5 91 0.9 SSE 11 13 6 7 1014.2 1011.9 0.0
15/05:00am 16.9 16.6 15.4 91 0.9 SSE 11 13 6 7 1014.1 1011.8 0.0
15/04:30am 17.0 16.7 15.5 91 0.9 S 11 13 6 7 1013.6 1011.2 0.0
15/04:24am 17.1 16.5 15.6 91 0.9 S 13 15 7 8 1013.6 1011.2 0.0
15/04:00am 17.2 16.5 15.5 90 1.0 SSE 13 19 7 10 1013.8 1011.4 0.0
15/03:30am 17.9 16.6 15.7 87 1.3 S 17 22 9 12 1013.3 1010.9 0.0
15/03:00am 18.3 17.7 15.6 84 1.6 S 13 17 7 9 1012.8 1010.5 0.0
15/02:30am 19.2 17.6 15.1 77 2.5 SSW 17 20 9 11 1012.9 1010.6 0.0
15/02:00am 20.5 18.6 14.2 67 3.8 SE 17 20 9 11 1012.9 1010.6 0.0
15/01:30am 19.9 19.8 13.8 68 3.6 SE 7 11 4 6 1012.9 1010.6 0.0
15/01:00am 20.4 19.1 13.6 65 4.0 SE 13 20 7 11 1013.1 1010.8 0.0
15/12:30am 20.3 20.3 13.5 65 4.0 SE 6 9 3 5 1012.7 1010.4 0.0
15/12:00am 20.3 21.5 13.7 66 3.9 CALM 0 0 0 0 1012.7 1010.4 0.0
 
Date/Time
EDT
Temp
°C
App
Temp
°C
Dew
Point
°C
Rel
Hum
%
Delta-T
°C
Wind Press
QNH
hPa
Press
MSL
hPa
Rain since
9am
mm
Dir  Spd
km/h
Gust
km/h
Spd
kts
Gust
kts
14/11:30pm 20.7 21.9 13.9 65 4.0 CALM 0 0 0 0 1012.6 1010.2 0.0
14/11:00pm 21.2 22.1 12.9 59 4.9 CALM 0 7 0 4 1012.5 1010.1 0.0
14/10:30pm 21.0 22.0 13.2 61 4.6 CALM 0 7 0 4 1012.2 1009.8 0.0
14/10:00pm 21.7 20.3 12.3 55 5.5 W 11 11 6 6 1012.0 1009.6 0.0
14/09:30pm 23.3 22.0 11.4 47 6.9 W 9 13 5 7 1011.7 1009.3 0.0
14/09:00pm 24.1 21.9 10.7 43 7.7 W 13 17 7 9 1011.6 1009.2 0.0
14/08:30pm 26.4 23.1 9.7 35 9.5 NW 17 22 9 12 1011.3 1009.0 0.0
14/08:00pm 27.5 23.5 8.9 31 10.5 NW 20 30 11 16 1010.7 1008.3 0.0
14/07:30pm 27.9 22.9 9.7 32 10.4 NNW 26 35 14 19 1010.6 1008.2 0.0
14/07:06pm 26.4 21.4 10.9 38 9.0 NNW 28 46 15 25 1010.6 1008.2 0.0
14/07:00pm 26.0 22.7 11.7 41 8.4 NNW 20 33 11 18 1010.5 1008.1 0.0
14/06:30pm 25.0 22.0 12.6 46 7.4 W 20 33 11 18 1010.3 1007.9 0.0
14/06:00pm 26.6 18.5 10.7 37 9.2 W 44 65 24 35 1010.8 1008.4 0.0
14/05:58pm 27.0 19.5 10.7 36 9.5 WNW 41 65 22 35 1010.8 1008.4 0.0
14/05:54pm 29.0 22.7 9.7 30 11.1 NW 33 65 18 35 1010.5 1008.1 0.0
14/05:51pm 30.7 25.2 9.0 26 12.5 NW 28 46 15 25 1009.5 1007.1 0.0
14/05:30pm 31.0 25.5 9.3 26 12.5 NW 28 37 15 20 1009.0 1006.6 0.0
14/05:00pm 31.8 25.3 8.1 23 13.5 NW 32 44 17 24 1008.9 1006.5 0.0
14/04:30pm 31.6 25.0 8.6 24 13.2 NW 33 46 18 25 1009.1 1006.7 0.0
14/04:00pm 31.5 26.2 9.7 26 12.7 WNW 28 35 15 19 1009.2 1006.8 0.0
14/03:30pm 31.4 25.2 7.8 23 13.3 WNW 30 43 16 23 1009.4 1007.0 0.0
14/03:00pm 33.1 27.7 11.0 26 13.2 NNW 30 44 16 24 1009.5 1007.1 0.0
14/02:30pm 31.9 24.6 8.8 24 13.3 NW 37 50 20 27 1009.9 1007.4 0.0
14/02:16pm 32.4 26.3 10.4 26 13.0 NW 33 46 18 25 1010.1 1007.7 0.0
14/02:00pm 32.1 25.0 9.6 25 13.1 WNW 37 50 20 27 1010.2 1007.8 0.0
14/01:30pm 32.5 25.3 9.3 24 13.5 NW 37 50 20 27 1010.5 1008.1 0.0
14/01:00pm 31.9 24.4 9.4 25 13.1 WNW 39 50 21 27 1010.7 1008.3 0.0
14/12:30pm 32.1 24.3 9.6 25 13.1 NW 41 54 22 29 1010.6 1008.2 0.0
14/12:00pm 31.9 23.5 8.8 24 13.3 NW 43 56 23 30 1010.8 1008.4 0.0
14/11:51am 32.3 25.7 8.5 23 13.6 NW 33 54 18 29 1010.9 1008.5 0.0
14/11:30am 30.3 22.4 9.2 27 12.1 WNW 41 52 22 28 1011.2 1008.8 0.0
14/11:00am 30.7 22.3 9.0 26 12.5 NW 43 57 23 31 1011.3 1009.0 0.0
14/10:30am 30.7 23.2 9.6 27 12.2 NW 39 57 21 31 1011.4 1009.1 0.0
14/10:00am 30.2 23.1 9.7 28 11.9 NW 37 50 20 27 1011.6 1009.2 0.0
14/09:30am 29.5 22.8 9.6 29 11.5 NW 35 52 19 28 1011.7 1009.3 0.0
14/09:00am 28.7 21.4 8.9 29 11.2 NW 37 50 20 27 1011.8 1009.4 0.0
14/08:30am 27.8 23.7 10.1 33 10.2 NW 22 35 12 19 1011.8 1009.4 0.0
14/08:00am 25.7 23.7 11.5 41 8.3 NNW 13 20 7 11 1011.7 1009.3 0.0
14/07:30am 21.3 23.7 17.1 77 2.6 CALM 0 0 0 0 1011.7 1009.3 0.0
14/07:00am 17.0 17.5 13.9 82 1.8 SSE 4 6 2 3 1011.6 1009.2 0.0
14/06:30am 14.0 14.4 12.4 90 0.9 SSE 2 6 1 3 1011.2 1008.8 0.0
14/06:00am 13.2 13.8 11.8 91 0.8 CALM 0 0 0 0 1010.9 1008.5 0.0
14/05:30am 12.9 13.3 11.3 90 0.9 CALM 0 0 0 0 1010.8 1008.4 0.0
14/05:00am 13.3 13.8 11.5 89 1.0 CALM 0 0 0 0 1010.5 1008.1 0.0
14/04:30am 13.2 12.9 11.6 90 0.9 SSE 4 6 2 3 1010.4 1008.0 0.0
14/04:00am 13.3 13.0 11.4 88 1.0 SSW 4 7 2 4 1010.3 1007.9 0.0
14/03:30am 13.5 12.0 11.9 90 0.9 WSW 11 13 6 7 1010.4 1008.0 0.0
14/03:00am 14.1 13.3 11.8 86 1.3 ESE 7 9 4 5 1010.4 1008.0 0.0
14/02:30am 14.6 14.2 12.5 87 1.2 ESE 6 7 3 4 1011.1 1008.7 0.0
14/02:00am 14.7 15.6 12.9 89 1.0 CALM 0 0 0 0 1011.3 1009.0 0.0
14/01:30am 16.0 16.7 12.2 78 2.1 CALM 0 0 0 0 1011.7 1009.3 0.0
14/01:00am 16.0 16.8 12.4 79 2.0 CALM 0 0 0 0 1011.9 1009.5 0.0
14/12:30am 16.2 16.1 12.2 77 2.3 ESE 4 6 2 3 1012.0 1009.6 0.0
14/12:00am 16.6 16.1 12.2 75 2.5 ESE 6 9 3 5 1012.3 1009.9 0.0
 
Date/Time
EDT
Temp
°C
App
Temp
°C
Dew
Point
°C
Rel
Hum
%
Delta-T
°C
Wind Press
QNH
hPa
Press
MSL
hPa
Rain since
9am
mm
Dir  Spd
km/h
Gust
km/h
Spd
kts
Gust
kts
13/11:30pm 16.6 17.5 12.9 79 2.1 CALM 0 0 0 0 1012.3 1009.9 0.0
13/11:00pm 18.3 18.7 11.4 64 3.9 CALM 0 0 0 0 1012.3 1009.9 0.0
13/10:30pm 18.4 19.0 11.9 66 3.7 CALM 0 0 0 0 1012.3 1009.9 0.0
13/10:00pm 18.9 19.3 11.2 61 4.3 CALM 0 0 0 0 1012.5 1010.1 0.0
13/09:30pm 20.5 20.9 11.4 56 5.2 CALM 0 0 0 0 1012.4 1010.0 0.0
13/09:00pm 21.5 21.9 11.2 52 5.9 CALM 0 0 0 0 1012.2 1009.8 0.0
13/08:30pm 23.5 23.5 9.9 42 7.7 CALM 0 0 0 0 1012.0 1009.6 0.0
13/08:00pm 26.7 25.1 8.6 32 10.1 WNW 7 7 4 4 1011.9 1009.5 0.0

Latest Capital City Observations: Canberra | Sydney | Melbourne | Brisbane | Adelaide | Perth | Hobart | Darwin

Other Formats:

Comma delimited format used in spreadsheet applications
http://www.bom.gov.au/fwo/IDN60903/IDN60903.95716.axf

JavaScript Object Notation format (JSON) in row-major order
http://www.bom.gov.au/fwo/IDN60903/IDN60903.95716.json